sensor_id;sensor_type;location;lat;lon;timestamp;temperature;humidity
34955;DHT22;21639;51.460;-2.536;2022-07-23T00:02:08;16.10;99.90
34955;DHT22;21639;51.460;-2.536;2022-07-23T00:04:34;16.10;99.90
34955;DHT22;21639;51.460;-2.536;2022-07-23T00:06:59;16.10;99.90
34955;DHT22;21639;51.460;-2.536;2022-07-23T00:09:25;16.20;99.90
34955;DHT22;21639;51.460;-2.536;2022-07-23T00:11:52;16.20;99.90
34955;DHT22;21639;51.460;-2.536;2022-07-23T00:14:17;16.10;99.90
34955;DHT22;21639;51.460;-2.536;2022-07-23T00:16:43;16.10;99.90
34955;DHT22;21639;51.460;-2.536;2022-07-23T00:19:09;16.00;99.90
34955;DHT22;21639;51.460;-2.536;2022-07-23T00:21:35;15.90;99.90
34955;DHT22;21639;51.460;-2.536;2022-07-23T00:24:00;15.80;99.90
34955;DHT22;21639;51.460;-2.536;2022-07-23T00:26:26;15.70;99.90
34955;DHT22;21639;51.460;-2.536;2022-07-23T00:28:52;15.60;99.90
34955;DHT22;21639;51.460;-2.536;2022-07-23T00:31:18;15.50;99.90
34955;DHT22;21639;51.460;-2.536;2022-07-23T00:33:43;15.40;99.90
34955;DHT22;21639;51.460;-2.536;2022-07-23T00:36:09;15.40;99.90
34955;DHT22;21639;51.460;-2.536;2022-07-23T00:38:34;15.40;99.90
34955;DHT22;21639;51.460;-2.536;2022-07-23T00:41:00;15.30;99.90
34955;DHT22;21639;51.460;-2.536;2022-07-23T00:43:26;15.30;99.90
34955;DHT22;21639;51.460;-2.536;2022-07-23T00:45:51;15.30;99.90
34955;DHT22;21639;51.460;-2.536;2022-07-23T00:48:17;15.20;99.90
34955;DHT22;21639;51.460;-2.536;2022-07-23T00:50:43;15.20;99.90
34955;DHT22;21639;51.460;-2.536;2022-07-23T00:53:09;15.20;99.90
34955;DHT22;21639;51.460;-2.536;2022-07-23T00:55:35;15.20;99.90
34955;DHT22;21639;51.460;-2.536;2022-07-23T00:58:02;15.20;99.90
34955;DHT22;21639;51.460;-2.536;2022-07-23T01:00:28;15.10;99.90
34955;DHT22;21639;51.460;-2.536;2022-07-23T01:02:53;15.20;99.90
34955;DHT22;21639;51.460;-2.536;2022-07-23T01:05:19;15.10;99.90
34955;DHT22;21639;51.460;-2.536;2022-07-23T01:07:48;15.00;99.90
34955;DHT22;21639;51.460;-2.536;2022-07-23T01:10:14;15.00;99.90
34955;DHT22;21639;51.460;-2.536;2022-07-23T01:13:06;14.90;99.90
34955;DHT22;21639;51.460;-2.536;2022-07-23T01:15:34;15.00;99.90
34955;DHT22;21639;51.460;-2.536;2022-07-23T01:18:01;14.90;99.90
34955;DHT22;21639;51.460;-2.536;2022-07-23T01:20:27;14.80;99.90
34955;DHT22;21639;51.460;-2.536;2022-07-23T01:22:53;14.80;99.90
34955;DHT22;21639;51.460;-2.536;2022-07-23T01:25:19;14.70;99.90
34955;DHT22;21639;51.460;-2.536;2022-07-23T01:27:45;14.70;99.90
34955;DHT22;21639;51.460;-2.536;2022-07-23T01:30:11;14.60;99.90
34955;DHT22;21639;51.460;-2.536;2022-07-23T01:32:38;14.60;99.90
34955;DHT22;21639;51.460;-2.536;2022-07-23T01:35:05;14.50;99.90
34955;DHT22;21639;51.460;-2.536;2022-07-23T01:37:31;14.60;99.90
34955;DHT22;21639;51.460;-2.536;2022-07-23T01:39:57;14.60;99.90
34955;DHT22;21639;51.460;-2.536;2022-07-23T13:41:40;22.90;99.90
34955;DHT22;21639;51.460;-2.536;2022-07-23T13:44:09;22.60;99.90
34955;DHT22;21639;51.460;-2.536;2022-07-23T13:46:35;22.80;99.90
34955;DHT22;21639;51.460;-2.536;2022-07-23T13:49:00;23.30;99.90
34955;DHT22;21639;51.460;-2.536;2022-07-23T13:51:26;23.50;99.90
34955;DHT22;21639;51.460;-2.536;2022-07-23T13:53:52;23.50;99.90
34955;DHT22;21639;51.460;-2.536;2022-07-23T13:56:17;23.00;99.90
34955;DHT22;21639;51.460;-2.536;2022-07-23T13:58:43;22.70;99.90
34955;DHT22;21639;51.460;-2.536;2022-07-23T14:01:09;22.40;99.90
34955;DHT22;21639;51.460;-2.536;2022-07-23T14:03:35;22.10;99.90
34955;DHT22;21639;51.460;-2.536;2022-07-23T14:06:00;22.00;99.90
34955;DHT22;21639;51.460;-2.536;2022-07-23T14:08:26;21.90;99.90
34955;DHT22;21639;51.460;-2.536;2022-07-23T14:10:52;22.00;99.90
34955;DHT22;21639;51.460;-2.536;2022-07-23T14:13:17;21.70;99.90
34955;DHT22;21639;51.460;-2.536;2022-07-23T14:15:43;21.60;99.90
34955;DHT22;21639;51.460;-2.536;2022-07-23T14:18:08;21.40;99.90
34955;DHT22;21639;51.460;-2.536;2022-07-23T14:20:35;21.30;99.90
34955;DHT22;21639;51.460;-2.536;2022-07-23T14:23:01;21.20;99.90
34955;DHT22;21639;51.460;-2.536;2022-07-23T14:25:26;21.60;99.90
34955;DHT22;21639;51.460;-2.536;2022-07-23T14:27:53;22.10;99.90
34955;DHT22;21639;51.460;-2.536;2022-07-23T14:30:34;22.60;99.90
34955;DHT22;21639;51.460;-2.536;2022-07-23T14:33:08;23.00;99.90
34955;DHT22;21639;51.460;-2.536;2022-07-23T14:35:39;23.90;99.90
34955;DHT22;21639;51.460;-2.536;2022-07-23T14:38:08;24.30;97.20
34955;DHT22;21639;51.460;-2.536;2022-07-23T14:40:33;24.60;95.60
34955;DHT22;21639;51.460;-2.536;2022-07-23T14:42:59;24.50;95.10
34955;DHT22;21639;51.460;-2.536;2022-07-23T14:45:25;24.20;96.60
34955;DHT22;21639;51.460;-2.536;2022-07-23T14:47:50;23.40;99.90
34955;DHT22;21639;51.460;-2.536;2022-07-23T14:50:16;23.00;99.90
34955;DHT22;21639;51.460;-2.536;2022-07-23T14:52:42;22.30;99.90
34955;DHT22;21639;51.460;-2.536;2022-07-23T14:55:07;22.00;99.90
34955;DHT22;21639;51.460;-2.536;2022-07-23T14:57:33;21.90;99.90
34955;DHT22;21639;51.460;-2.536;2022-07-23T14:59:59;21.60;99.90
34955;DHT22;21639;51.460;-2.536;2022-07-23T15:02:25;21.20;99.90
34955;DHT22;21639;51.460;-2.536;2022-07-23T15:04:50;21.20;99.90
34955;DHT22;21639;51.460;-2.536;2022-07-23T15:07:16;21.30;99.90
34955;DHT22;21639;51.460;-2.536;2022-07-23T15:09:42;21.30;99.90
34955;DHT22;21639;51.460;-2.536;2022-07-23T15:12:07;21.20;99.90
34955;DHT22;21639;51.460;-2.536;2022-07-23T15:14:33;21.30;99.90
34955;DHT22;21639;51.460;-2.536;2022-07-23T15:16:59;21.60;99.90
34955;DHT22;21639;51.460;-2.536;2022-07-23T15:19:24;21.70;99.90
34955;DHT22;21639;51.460;-2.536;2022-07-23T15:21:50;21.90;99.90
34955;DHT22;21639;51.460;-2.536;2022-07-23T15:24:16;22.10;99.90
34955;DHT22;21639;51.460;-2.536;2022-07-23T15:26:41;22.20;99.90
34955;DHT22;21639;51.460;-2.536;2022-07-23T15:29:07;22.20;99.90
34955;DHT22;21639;51.460;-2.536;2022-07-23T15:31:33;22.10;99.90
34955;DHT22;21639;51.460;-2.536;2022-07-23T15:33:59;22.10;99.90
34955;DHT22;21639;51.460;-2.536;2022-07-23T15:36:26;22.10;99.90
34955;DHT22;21639;51.460;-2.536;2022-07-23T15:38:52;21.80;99.90
34955;DHT22;21639;51.460;-2.536;2022-07-23T15:41:17;21.80;99.90
34955;DHT22;21639;51.460;-2.536;2022-07-23T15:43:43;21.60;99.90
34955;DHT22;21639;51.460;-2.536;2022-07-23T15:46:09;21.50;99.90
34955;DHT22;21639;51.460;-2.536;2022-07-23T15:48:36;21.50;99.90
34955;DHT22;21639;51.460;-2.536;2022-07-23T15:51:02;21.40;99.90
34955;DHT22;21639;51.460;-2.536;2022-07-23T15:53:28;21.40;99.90
34955;DHT22;21639;51.460;-2.536;2022-07-23T15:55:53;21.40;99.90
34955;DHT22;21639;51.460;-2.536;2022-07-23T15:58:19;21.40;99.90
34955;DHT22;21639;51.460;-2.536;2022-07-23T16:00:45;21.30;99.90
34955;DHT22;21639;51.460;-2.536;2022-07-23T16:03:10;21.30;99.90
34955;DHT22;21639;51.460;-2.536;2022-07-23T16:05:36;21.20;99.90
34955;DHT22;21639;51.460;-2.536;2022-07-23T16:08:03;21.20;99.90
34955;DHT22;21639;51.460;-2.536;2022-07-23T16:10:29;21.10;99.90
34955;DHT22;21639;51.460;-2.536;2022-07-23T16:12:56;21.00;99.90
34955;DHT22;21639;51.460;-2.536;2022-07-23T16:15:22;21.20;99.90
34955;DHT22;21639;51.460;-2.536;2022-07-23T16:17:48;21.30;99.90
34955;DHT22;21639;51.460;-2.536;2022-07-23T16:20:14;21.30;99.90
34955;DHT22;21639;51.460;-2.536;2022-07-23T16:22:40;21.30;99.90
34955;DHT22;21639;51.460;-2.536;2022-07-23T16:25:07;21.50;99.90
34955;DHT22;21639;51.460;-2.536;2022-07-23T16:27:35;21.50;99.90
34955;DHT22;21639;51.460;-2.536;2022-07-23T16:30:01;21.40;99.90
34955;DHT22;21639;51.460;-2.536;2022-07-23T16:32:27;21.40;99.90
34955;DHT22;21639;51.460;-2.536;2022-07-23T16:34:53;21.30;99.90
34955;DHT22;21639;51.460;-2.536;2022-07-23T16:37:19;21.20;99.90
34955;DHT22;21639;51.460;-2.536;2022-07-23T16:39:45;21.00;99.90
34955;DHT22;21639;51.460;-2.536;2022-07-23T16:42:11;20.90;99.90
34955;DHT22;21639;51.460;-2.536;2022-07-23T16:44:37;20.80;99.90
34955;DHT22;21639;51.460;-2.536;2022-07-23T16:47:03;21.00;99.90
34955;DHT22;21639;51.460;-2.536;2022-07-23T16:49:28;21.10;99.90
34955;DHT22;21639;51.460;-2.536;2022-07-23T16:51:54;21.30;99.90
34955;DHT22;21639;51.460;-2.536;2022-07-23T16:54:20;21.30;99.90
34955;DHT22;21639;51.460;-2.536;2022-07-23T16:56:46;21.30;99.90
34955;DHT22;21639;51.460;-2.536;2022-07-23T16:59:12;21.20;99.90
34955;DHT22;21639;51.460;-2.536;2022-07-23T17:01:38;21.00;99.90
34955;DHT22;21639;51.460;-2.536;2022-07-23T17:04:04;21.00;99.90
34955;DHT22;21639;51.460;-2.536;2022-07-23T17:06:30;21.20;99.90
34955;DHT22;21639;51.460;-2.536;2022-07-23T17:08:55;21.50;99.90
34955;DHT22;21639;51.460;-2.536;2022-07-23T17:11:21;21.60;99.90
34955;DHT22;21639;51.460;-2.536;2022-07-23T17:13:47;21.70;99.90
34955;DHT22;21639;51.460;-2.536;2022-07-23T17:16:12;21.90;99.90
34955;DHT22;21639;51.460;-2.536;2022-07-23T17:18:38;22.00;99.90
34955;DHT22;21639;51.460;-2.536;2022-07-23T17:21:04;21.90;99.90
34955;DHT22;21639;51.460;-2.536;2022-07-23T17:23:29;21.60;99.90
34955;DHT22;21639;51.460;-2.536;2022-07-23T17:25:55;21.50;99.90
34955;DHT22;21639;51.460;-2.536;2022-07-23T17:28:21;21.30;99.90
34955;DHT22;21639;51.460;-2.536;2022-07-23T17:30:47;20.80;99.90
34955;DHT22;21639;51.460;-2.536;2022-07-23T17:33:12;20.40;99.90
34955;DHT22;21639;51.460;-2.536;2022-07-23T17:35:39;20.30;99.90
34955;DHT22;21639;51.460;-2.536;2022-07-23T17:38:05;20.10;99.90
34955;DHT22;21639;51.460;-2.536;2022-07-23T17:40:31;20.00;99.90
34955;DHT22;21639;51.460;-2.536;2022-07-23T17:42:56;20.00;99.90
34955;DHT22;21639;51.460;-2.536;2022-07-23T17:45:23;20.00;99.90
34955;DHT22;21639;51.460;-2.536;2022-07-23T17:47:48;20.00;99.90
34955;DHT22;21639;51.460;-2.536;2022-07-23T17:50:14;20.20;99.90
34955;DHT22;21639;51.460;-2.536;2022-07-23T17:55:10;20.30;99.90
34955;DHT22;21639;51.460;-2.536;2022-07-23T17:57:35;20.30;99.90
34955;DHT22;21639;51.460;-2.536;2022-07-23T18:00:01;20.10;99.90
34955;DHT22;21639;51.460;-2.536;2022-07-23T18:02:27;20.20;99.90
34955;DHT22;21639;51.460;-2.536;2022-07-23T18:04:52;20.30;99.90
34955;DHT22;21639;51.460;-2.536;2022-07-23T18:07:18;20.30;99.90
34955;DHT22;21639;51.460;-2.536;2022-07-23T18:09:43;20.20;99.90
34955;DHT22;21639;51.460;-2.536;2022-07-23T18:12:09;20.10;99.90
34955;DHT22;21639;51.460;-2.536;2022-07-23T18:14:35;20.20;99.90
34955;DHT22;21639;51.460;-2.536;2022-07-23T18:17:00;20.10;99.90
34955;DHT22;21639;51.460;-2.536;2022-07-23T18:19:26;20.20;99.90
34955;DHT22;21639;51.460;-2.536;2022-07-23T18:21:52;20.20;99.90
34955;DHT22;21639;51.460;-2.536;2022-07-23T18:24:17;20.40;99.90
34955;DHT22;21639;51.460;-2.536;2022-07-23T18:26:43;20.50;99.90
34955;DHT22;21639;51.460;-2.536;2022-07-23T18:29:08;20.70;99.90
34955;DHT22;21639;51.460;-2.536;2022-07-23T18:31:34;20.80;99.90
34955;DHT22;21639;51.460;-2.536;2022-07-23T18:34:00;20.90;99.90
34955;DHT22;21639;51.460;-2.536;2022-07-23T18:36:25;21.00;99.90
34955;DHT22;21639;51.460;-2.536;2022-07-23T18:38:51;21.10;99.90
34955;DHT22;21639;51.460;-2.536;2022-07-23T18:41:17;21.30;99.90
34955;DHT22;21639;51.460;-2.536;2022-07-23T18:43:42;21.70;99.90
34955;DHT22;21639;51.460;-2.536;2022-07-23T18:46:08;22.30;99.90
34955;DHT22;21639;51.460;-2.536;2022-07-23T18:48:34;23.10;99.90
34955;DHT22;21639;51.460;-2.536;2022-07-23T18:51:00;22.70;99.90
34955;DHT22;21639;51.460;-2.536;2022-07-23T18:53:25;22.40;99.90
34955;DHT22;21639;51.460;-2.536;2022-07-23T18:55:51;21.80;99.90
34955;DHT22;21639;51.460;-2.536;2022-07-23T18:58:17;21.60;99.90
34955;DHT22;21639;51.460;-2.536;2022-07-23T19:00:43;21.30;99.90
34955;DHT22;21639;51.460;-2.536;2022-07-23T19:03:09;21.10;99.90
34955;DHT22;21639;51.460;-2.536;2022-07-23T19:05:35;20.90;99.90
34955;DHT22;21639;51.460;-2.536;2022-07-23T19:08:00;20.80;99.90
34955;DHT22;21639;51.460;-2.536;2022-07-23T19:10:26;20.60;99.90
34955;DHT22;21639;51.460;-2.536;2022-07-23T19:12:52;20.40;99.90
34955;DHT22;21639;51.460;-2.536;2022-07-23T19:15:18;20.30;99.90
34955;DHT22;21639;51.460;-2.536;2022-07-23T19:17:43;20.40;99.90
34955;DHT22;21639;51.460;-2.536;2022-07-23T19:20:10;20.30;99.90
34955;DHT22;21639;51.460;-2.536;2022-07-23T19:22:36;20.20;99.90
34955;DHT22;21639;51.460;-2.536;2022-07-23T19:25:04;20.20;99.90
34955;DHT22;21639;51.460;-2.536;2022-07-23T19:27:30;20.20;99.90
34955;DHT22;21639;51.460;-2.536;2022-07-23T19:29:56;20.20;99.90
34955;DHT22;21639;51.460;-2.536;2022-07-23T19:32:21;20.00;99.90
34955;DHT22;21639;51.460;-2.536;2022-07-23T19:34:47;20.00;99.90
34955;DHT22;21639;51.460;-2.536;2022-07-23T19:37:13;19.90;99.90
34955;DHT22;21639;51.460;-2.536;2022-07-23T19:39:44;19.90;99.90
34955;DHT22;21639;51.460;-2.536;2022-07-23T19:42:10;19.90;99.90
34955;DHT22;21639;51.460;-2.536;2022-07-23T19:44:37;19.90;99.90
34955;DHT22;21639;51.460;-2.536;2022-07-23T19:47:03;19.80;99.90
34955;DHT22;21639;51.460;-2.536;2022-07-23T19:49:29;19.80;99.90
34955;DHT22;21639;51.460;-2.536;2022-07-23T19:51:55;19.70;99.90
34955;DHT22;21639;51.460;-2.536;2022-07-23T19:54:21;19.60;99.90
34955;DHT22;21639;51.460;-2.536;2022-07-23T19:56:47;19.60;99.90
34955;DHT22;21639;51.460;-2.536;2022-07-23T19:59:12;19.70;99.90
34955;DHT22;21639;51.460;-2.536;2022-07-23T20:01:38;19.60;99.90
34955;DHT22;21639;51.460;-2.536;2022-07-23T20:04:04;19.50;99.90
34955;DHT22;21639;51.460;-2.536;2022-07-23T20:06:30;19.30;99.90
34955;DHT22;21639;51.460;-2.536;2022-07-23T20:08:56;19.20;99.90
34955;DHT22;21639;51.460;-2.536;2022-07-23T20:11:22;19.20;99.90
34955;DHT22;21639;51.460;-2.536;2022-07-23T20:13:48;19.10;99.90
34955;DHT22;21639;51.460;-2.536;2022-07-23T20:16:14;19.00;99.90
34955;DHT22;21639;51.460;-2.536;2022-07-23T20:18:40;18.90;99.90
34955;DHT22;21639;51.460;-2.536;2022-07-23T20:21:06;18.80;99.90
34955;DHT22;21639;51.460;-2.536;2022-07-23T20:23:32;18.80;99.90
34955;DHT22;21639;51.460;-2.536;2022-07-23T20:25:57;18.80;99.90
34955;DHT22;21639;51.460;-2.536;2022-07-23T20:28:23;18.80;99.90
34955;DHT22;21639;51.460;-2.536;2022-07-23T20:30:49;18.80;99.90
34955;DHT22;21639;51.460;-2.536;2022-07-23T20:33:18;18.70;99.90
34955;DHT22;21639;51.460;-2.536;2022-07-23T20:35:44;18.70;99.90
34955;DHT22;21639;51.460;-2.536;2022-07-23T20:38:10;18.70;99.90
34955;DHT22;21639;51.460;-2.536;2022-07-23T20:40:37;18.70;99.90
34955;DHT22;21639;51.460;-2.536;2022-07-23T20:43:04;18.60;99.90
34955;DHT22;21639;51.460;-2.536;2022-07-23T20:45:29;18.60;99.90
34955;DHT22;21639;51.460;-2.536;2022-07-23T20:47:55;18.60;99.90
34955;DHT22;21639;51.460;-2.536;2022-07-23T20:50:22;18.60;99.90
34955;DHT22;21639;51.460;-2.536;2022-07-23T20:52:47;18.50;99.90
34955;DHT22;21639;51.460;-2.536;2022-07-23T20:55:13;18.50;99.90
34955;DHT22;21639;51.460;-2.536;2022-07-23T20:57:40;18.50;99.90
34955;DHT22;21639;51.460;-2.536;2022-07-23T21:00:08;18.50;99.90
34955;DHT22;21639;51.460;-2.536;2022-07-23T21:02:34;18.30;99.90
34955;DHT22;21639;51.460;-2.536;2022-07-23T21:05:01;18.40;99.90
34955;DHT22;21639;51.460;-2.536;2022-07-23T21:07:27;18.30;99.90
34955;DHT22;21639;51.460;-2.536;2022-07-23T21:09:52;18.40;99.90
34955;DHT22;21639;51.460;-2.536;2022-07-23T21:12:18;18.40;99.90
34955;DHT22;21639;51.460;-2.536;2022-07-23T21:14:44;18.30;99.90
34955;DHT22;21639;51.460;-2.536;2022-07-23T21:17:11;18.40;99.90
34955;DHT22;21639;51.460;-2.536;2022-07-23T21:19:37;18.40;99.90
34955;DHT22;21639;51.460;-2.536;2022-07-23T21:22:03;18.40;99.90
34955;DHT22;21639;51.460;-2.536;2022-07-23T21:24:30;18.30;99.90
34955;DHT22;21639;51.460;-2.536;2022-07-23T21:26:56;18.30;99.90
34955;DHT22;21639;51.460;-2.536;2022-07-23T21:29:21;18.20;99.90
34955;DHT22;21639;51.460;-2.536;2022-07-23T21:31:47;18.10;99.90
34955;DHT22;21639;51.460;-2.536;2022-07-23T21:34:13;18.10;99.90
34955;DHT22;21639;51.460;-2.536;2022-07-23T21:36:39;18.00;99.90
34955;DHT22;21639;51.460;-2.536;2022-07-23T21:39:05;18.00;99.90
34955;DHT22;21639;51.460;-2.536;2022-07-23T21:41:31;17.90;99.90
34955;DHT22;21639;51.460;-2.536;2022-07-23T21:44:00;17.80;99.90
34955;DHT22;21639;51.460;-2.536;2022-07-23T21:46:26;17.80;99.90
34955;DHT22;21639;51.460;-2.536;2022-07-23T21:48:53;17.80;99.90
34955;DHT22;21639;51.460;-2.536;2022-07-23T21:51:19;17.80;99.90
34955;DHT22;21639;51.460;-2.536;2022-07-23T21:53:44;17.90;99.90
34955;DHT22;21639;51.460;-2.536;2022-07-23T21:56:10;17.90;99.90
34955;DHT22;21639;51.460;-2.536;2022-07-23T21:58:36;18.00;99.90
34955;DHT22;21639;51.460;-2.536;2022-07-23T22:01:01;17.90;99.90
34955;DHT22;21639;51.460;-2.536;2022-07-23T22:03:27;17.90;99.90
34955;DHT22;21639;51.460;-2.536;2022-07-23T22:05:52;17.90;99.90
34955;DHT22;21639;51.460;-2.536;2022-07-23T22:08:18;17.90;99.90
34955;DHT22;21639;51.460;-2.536;2022-07-23T22:10:44;17.90;99.90
34955;DHT22;21639;51.460;-2.536;2022-07-23T22:13:09;17.90;99.90
34955;DHT22;21639;51.460;-2.536;2022-07-23T22:15:35;17.90;99.90
34955;DHT22;21639;51.460;-2.536;2022-07-23T22:18:01;17.90;99.90
34955;DHT22;21639;51.460;-2.536;2022-07-23T22:20:27;17.90;99.90
34955;DHT22;21639;51.460;-2.536;2022-07-23T22:22:52;17.90;99.90
34955;DHT22;21639;51.460;-2.536;2022-07-23T22:25:19;17.90;99.90
34955;DHT22;21639;51.460;-2.536;2022-07-23T22:27:46;18.00;99.90
34955;DHT22;21639;51.460;-2.536;2022-07-23T22:30:14;18.00;99.90
34955;DHT22;21639;51.460;-2.536;2022-07-23T22:32:41;18.10;99.90
34955;DHT22;21639;51.460;-2.536;2022-07-23T22:35:07;18.00;99.90
34955;DHT22;21639;51.460;-2.536;2022-07-23T22:37:33;18.00;99.90
34955;DHT22;21639;51.460;-2.536;2022-07-23T22:39:59;18.00;99.90
34955;DHT22;21639;51.460;-2.536;2022-07-23T22:42:24;18.00;99.90
34955;DHT22;21639;51.460;-2.536;2022-07-23T22:44:50;18.00;99.90
34955;DHT22;21639;51.460;-2.536;2022-07-23T22:47:16;18.00;99.90
34955;DHT22;21639;51.460;-2.536;2022-07-23T22:49:41;18.00;99.90
34955;DHT22;21639;51.460;-2.536;2022-07-23T22:52:07;18.00;99.90
34955;DHT22;21639;51.460;-2.536;2022-07-23T22:54:33;18.00;99.90
34955;DHT22;21639;51.460;-2.536;2022-07-23T22:56:58;18.00;99.90
34955;DHT22;21639;51.460;-2.536;2022-07-23T22:59:24;18.00;99.90
34955;DHT22;21639;51.460;-2.536;2022-07-23T23:01:50;18.00;99.90
34955;DHT22;21639;51.460;-2.536;2022-07-23T23:04:15;18.10;99.90
34955;DHT22;21639;51.460;-2.536;2022-07-23T23:06:41;18.00;99.90
34955;DHT22;21639;51.460;-2.536;2022-07-23T23:09:07;18.00;99.90
34955;DHT22;21639;51.460;-2.536;2022-07-23T23:11:32;18.10;99.90
34955;DHT22;21639;51.460;-2.536;2022-07-23T23:13:58;18.00;99.90
34955;DHT22;21639;51.460;-2.536;2022-07-23T23:16:23;18.00;99.90
34955;DHT22;21639;51.460;-2.536;2022-07-23T23:18:49;18.00;99.90
34955;DHT22;21639;51.460;-2.536;2022-07-23T23:21:15;18.00;99.90
34955;DHT22;21639;51.460;-2.536;2022-07-23T23:23:41;18.10;99.90
34955;DHT22;21639;51.460;-2.536;2022-07-23T23:26:06;18.00;99.90
34955;DHT22;21639;51.460;-2.536;2022-07-23T23:28:32;18.00;99.90
34955;DHT22;21639;51.460;-2.536;2022-07-23T23:30:58;18.00;99.90
34955;DHT22;21639;51.460;-2.536;2022-07-23T23:33:23;18.00;99.90
34955;DHT22;21639;51.460;-2.536;2022-07-23T23:35:49;18.00;99.90
34955;DHT22;21639;51.460;-2.536;2022-07-23T23:38:14;17.90;99.90
34955;DHT22;21639;51.460;-2.536;2022-07-23T23:40:40;18.00;99.90
34955;DHT22;21639;51.460;-2.536;2022-07-23T23:43:06;17.90;99.90
34955;DHT22;21639;51.460;-2.536;2022-07-23T23:45:31;18.00;99.90
34955;DHT22;21639;51.460;-2.536;2022-07-23T23:47:57;18.00;99.90
34955;DHT22;21639;51.460;-2.536;2022-07-23T23:50:23;18.00;99.90
34955;DHT22;21639;51.460;-2.536;2022-07-23T23:52:48;18.00;99.90
34955;DHT22;21639;51.460;-2.536;2022-07-23T23:55:14;18.00;99.90
34955;DHT22;21639;51.460;-2.536;2022-07-23T23:57:40;18.00;99.90
